createdAt,value
2023-05-05T00:01:40.145Z,100.00
2023-05-05T00:04:08.143Z,100.00
2023-05-05T00:06:36.210Z,100.00
2023-05-05T00:09:05.704Z,100.00
2023-05-05T00:11:33.642Z,100.00
2023-05-05T00:14:01.635Z,100.00
2023-05-05T00:16:29.671Z,100.00
2023-05-05T00:18:57.917Z,100.00
2023-05-05T00:21:27.916Z,100.00
2023-05-05T00:23:56.003Z,100.00
2023-05-05T00:26:25.466Z,100.00
2023-05-05T00:28:53.405Z,100.00
2023-05-05T00:31:22.774Z,100.00
2023-05-05T00:33:50.776Z,100.00
2023-05-05T00:36:18.827Z,100.00
2023-05-05T00:39:05.299Z,100.00
2023-05-05T00:41:34.546Z,100.00
2023-05-05T00:44:02.473Z,100.00
2023-05-05T00:46:33.172Z,100.00
2023-05-05T00:49:02.090Z,100.00
2023-05-05T00:51:31.399Z,100.00
2023-05-05T00:53:59.440Z,100.00
2023-05-05T00:56:28.323Z,100.00
2023-05-05T00:58:59.262Z,100.00
2023-05-05T01:01:27.434Z,100.00
2023-05-05T01:03:55.628Z,100.00
2023-05-05T01:06:38.910Z,100.00
2023-05-05T01:09:17.786Z,100.00
2023-05-05T01:11:56.570Z,100.00
2023-05-05T01:14:37.175Z,100.00
2023-05-05T01:17:14.236Z,100.00
2023-05-05T01:19:58.411Z,100.00
2023-05-05T01:22:30.311Z,100.00
2023-05-05T01:25:18.011Z,100.00
2023-05-05T01:28:07.897Z,100.00
2023-05-05T01:31:07.351Z,100.00
2023-05-05T01:33:44.212Z,100.00
2023-05-05T01:36:23.639Z,100.00
2023-05-05T01:38:58.137Z,100.00
2023-05-05T01:41:30.931Z,100.00
2023-05-05T01:44:02.425Z,100.00
2023-05-05T01:46:31.485Z,100.00
2023-05-05T01:49:00.992Z,100.00
2023-05-05T01:51:29.862Z,100.00
2023-05-05T01:54:00.291Z,100.00
2023-05-05T01:56:31.370Z,100.00
2023-05-05T01:59:01.909Z,100.00
2023-05-05T02:01:31.284Z,100.00
2023-05-05T02:04:02.621Z,100.00
2023-05-05T02:06:32.484Z,100.00
2023-05-05T02:09:01.512Z,100.00
2023-05-05T02:11:30.823Z,100.00
2023-05-05T02:14:00.066Z,100.00
2023-05-05T02:16:31.287Z,100.00
2023-05-05T02:19:05.179Z,100.00
2023-05-05T02:21:33.835Z,100.00
2023-05-05T02:24:03.213Z,100.00
2023-05-05T02:26:35.090Z,100.00
2023-05-05T02:29:07.451Z,100.00
2023-05-05T02:31:39.761Z,100.00
2023-05-05T02:34:10.384Z,100.00
2023-05-05T02:36:43.313Z,100.00
2023-05-05T02:39:20.974Z,100.00
2023-05-05T02:41:50.811Z,100.00
2023-05-05T02:44:21.303Z,100.00
2023-05-05T02:46:49.379Z,100.00
2023-05-05T02:49:18.880Z,100.00
2023-05-05T02:51:46.919Z,100.00
2023-05-05T02:54:15.207Z,100.00
2023-05-05T02:56:48.556Z,100.00
2023-05-05T02:59:21.924Z,100.00
2023-05-05T03:02:01.880Z,100.00
2023-05-05T03:04:39.532Z,100.00
2023-05-05T03:07:11.858Z,100.00
2023-05-05T03:09:44.765Z,100.00
2023-05-05T03:12:17.043Z,100.00
2023-05-05T03:14:47.120Z,100.00
2023-05-05T03:17:15.927Z,100.00
2023-05-05T03:19:46.027Z,100.00
2023-05-05T03:22:14.272Z,100.00
2023-05-05T03:24:42.410Z,100.00
2023-05-05T03:27:10.409Z,100.00
2023-05-05T03:29:38.347Z,100.00
2023-05-05T03:32:07.411Z,100.00
2023-05-05T03:34:37.356Z,100.00
2023-05-05T03:37:07.120Z,100.00
2023-05-05T03:39:35.124Z,100.00
2023-05-05T03:42:03.065Z,100.00
2023-05-05T03:44:31.068Z,100.00
2023-05-05T03:46:59.168Z,100.00
2023-05-05T03:49:27.201Z,100.00
2023-05-05T03:51:55.151Z,100.00
2023-05-05T03:54:24.498Z,100.00
2023-05-05T03:56:52.478Z,100.00
2023-05-05T03:59:20.477Z,100.00
2023-05-05T04:01:49.941Z,100.00
2023-05-05T04:04:18.081Z,100.00
2023-05-05T04:06:46.035Z,100.00
2023-05-05T04:09:14.664Z,100.00
2023-05-05T04:11:44.012Z,100.00
2023-05-05T04:14:11.959Z,100.00
2023-05-05T04:16:40.003Z,100.00
2023-05-05T04:19:08.387Z,100.00
2023-05-05T04:21:36.887Z,100.00
2023-05-05T04:24:05.039Z,100.00
2023-05-05T04:26:33.063Z,100.00
2023-05-05T04:29:02.444Z,100.00
2023-05-05T04:31:31.959Z,100.00
2023-05-05T04:34:00.206Z,100.00
2023-05-05T04:36:28.364Z,100.00
2023-05-05T04:38:56.401Z,100.00
2023-05-05T04:41:24.509Z,100.00
2023-05-05T04:43:52.519Z,100.00
2023-05-05T04:46:21.913Z,100.00
2023-05-05T04:48:49.937Z,100.00
2023-05-05T04:51:18.126Z,100.00
2023-05-05T04:53:46.211Z,100.00
2023-05-05T04:56:14.178Z,100.00
2023-05-05T04:58:42.195Z,100.00
2023-05-05T05:01:10.136Z,100.00
2023-05-05T05:03:39.459Z,100.00
2023-05-05T05:06:07.853Z,100.00
2023-05-05T05:08:35.900Z,100.00
2023-05-05T05:11:04.066Z,100.00
2023-05-05T05:13:32.486Z,100.00
2023-05-05T05:16:01.169Z,100.00
2023-05-05T05:18:29.268Z,100.00
2023-05-05T05:20:58.775Z,100.00
2023-05-05T05:23:26.733Z,100.00
2023-05-05T05:25:54.644Z,100.00
2023-05-05T05:28:22.613Z,100.00
2023-05-05T05:30:50.699Z,100.00
2023-05-05T05:33:19.094Z,100.00
2023-05-05T05:35:47.692Z,100.00
2023-05-05T05:38:17.684Z,100.00
2023-05-05T05:40:45.666Z,100.00
2023-05-05T05:43:15.143Z,100.00
2023-05-05T05:45:43.253Z,100.00
2023-05-05T05:48:11.728Z,100.00
2023-05-05T05:50:41.892Z,100.00
2023-05-05T05:53:09.863Z,100.00
2023-05-05T05:55:39.195Z,100.00
2023-05-05T05:58:07.203Z,100.00
2023-05-05T06:00:35.228Z,100.00
2023-05-05T06:03:05.738Z,100.00
2023-05-05T06:05:34.398Z,100.00
2023-05-05T06:08:02.486Z,100.00
2023-05-05T06:10:32.159Z,100.00
2023-05-05T06:13:01.723Z,100.00
2023-05-05T06:15:29.753Z,100.00
2023-05-05T06:17:57.792Z,100.00
2023-05-05T06:20:25.800Z,100.00
2023-05-05T06:22:53.922Z,100.00
2023-05-05T06:25:22.096Z,100.00
2023-05-05T06:27:50.006Z,100.00
2023-05-05T06:30:19.892Z,100.00
2023-05-05T06:32:47.940Z,100.00
2023-05-05T06:35:16.112Z,100.00
2023-05-05T06:37:45.272Z,100.00
2023-05-05T06:40:14.209Z,100.00
2023-05-05T06:42:42.686Z,100.00
2023-05-05T06:45:11.338Z,100.00
2023-05-05T06:47:40.786Z,100.00
2023-05-05T06:50:11.226Z,100.00
2023-05-05T06:52:39.299Z,100.00
2023-05-05T06:55:08.237Z,100.00
2023-05-05T06:57:37.259Z,100.00
2023-05-05T07:00:09.728Z,100.00
2023-05-05T07:02:37.931Z,100.00
2023-05-05T07:05:08.033Z,100.00
2023-05-05T07:07:36.495Z,100.00
2023-05-05T07:10:04.477Z,100.00
2023-05-05T07:12:34.699Z,100.00
2023-05-05T07:15:12.224Z,97.01
2023-05-05T07:17:47.638Z,98.59
2023-05-05T07:20:17.070Z,99.79
2023-05-05T07:22:45.110Z,97.91
2023-05-05T07:25:13.019Z,96.78
2023-05-05T07:27:41.551Z,96.66
2023-05-05T07:30:14.027Z,98.14
2023-05-05T07:32:44.545Z,89.37
2023-05-05T07:35:12.640Z,85.45
2023-05-05T07:37:42.463Z,81.24
2023-05-05T07:40:13.817Z,76.25
2023-05-05T07:42:41.861Z,71.70
2023-05-05T07:45:10.427Z,68.02
2023-05-05T07:47:38.628Z,63.90
2023-05-05T07:50:07.978Z,60.88
2023-05-05T07:52:46.456Z,61.73
2023-05-05T07:55:17.793Z,59.31
2023-05-05T07:57:45.809Z,59.47
2023-05-05T08:02:42.695Z,56.56
2023-05-05T08:05:10.914Z,57.24
2023-05-05T08:07:41.688Z,58.01
2023-05-05T08:10:11.747Z,57.26
2023-05-05T08:12:41.458Z,58.00
2023-05-05T08:15:10.257Z,55.94
2023-05-05T08:17:46.804Z,57.28
2023-05-05T08:20:14.995Z,54.29
2023-05-05T08:22:43.598Z,55.29
2023-05-05T08:25:13.027Z,52.85
2023-05-05T08:27:44.127Z,52.76
2023-05-05T08:30:12.633Z,53.48
2023-05-05T08:32:40.831Z,52.20
2023-05-05T08:35:09.633Z,54.00
2023-05-05T08:37:37.825Z,50.92
2023-05-05T08:40:07.414Z,54.92
2023-05-05T08:42:38.705Z,55.30
2023-05-05T08:45:11.153Z,54.38
2023-05-05T08:47:40.350Z,52.50
2023-05-05T08:50:11.455Z,50.74
2023-05-05T08:52:41.491Z,49.88
2023-05-05T08:55:15.895Z,52.85
2023-05-05T08:57:52.173Z,56.69
2023-05-05T09:00:22.974Z,58.84
2023-05-05T09:02:51.910Z,59.99
2023-05-05T09:05:20.007Z,60.34
2023-05-05T09:07:48.990Z,59.72
2023-05-05T09:10:18.433Z,60.05
2023-05-05T09:12:46.694Z,61.13
2023-05-05T09:15:16.757Z,61.34
2023-05-05T09:17:46.300Z,60.89
2023-05-05T09:20:15.367Z,60.37
2023-05-05T09:22:45.630Z,58.51
2023-05-05T09:25:15.170Z,55.01
2023-05-05T09:27:46.974Z,53.25
2023-05-05T09:30:17.848Z,54.06
2023-05-05T09:32:49.140Z,53.97
2023-05-05T09:35:17.821Z,53.16
2023-05-05T09:37:46.991Z,51.99
2023-05-05T09:40:16.545Z,52.12
2023-05-05T09:42:45.529Z,55.36
2023-05-05T09:45:27.807Z,55.75
2023-05-05T09:48:00.120Z,55.67
2023-05-05T09:50:30.955Z,57.28
2023-05-05T09:53:00.846Z,58.87
2023-05-05T09:55:29.339Z,58.60
2023-05-05T09:57:57.526Z,57.58
2023-05-05T10:00:39.261Z,57.14
2023-05-05T10:03:08.643Z,56.01
2023-05-05T10:05:49.112Z,57.04
2023-05-05T10:08:19.010Z,58.86
2023-05-05T10:10:50.817Z,57.82
2023-05-05T10:13:21.305Z,58.24
2023-05-05T10:15:51.035Z,59.65
2023-05-05T10:18:23.813Z,58.81
2023-05-05T10:20:59.426Z,57.87
2023-05-05T10:23:39.311Z,58.60
2023-05-05T10:26:09.210Z,58.60
2023-05-05T10:29:00.144Z,59.71
2023-05-05T10:31:35.059Z,60.62
2023-05-05T10:34:07.148Z,60.73
2023-05-05T10:36:35.906Z,59.36
2023-05-05T10:39:06.922Z,58.05
2023-05-05T10:41:36.119Z,57.79
2023-05-05T10:44:05.137Z,57.98
2023-05-05T10:46:33.559Z,59.26
2023-05-05T10:49:13.260Z,59.69
2023-05-05T10:51:48.175Z,59.18
2023-05-05T10:54:29.471Z,57.79
2023-05-05T10:56:59.224Z,57.66
2023-05-05T10:59:44.483Z,57.29
2023-05-05T11:02:36.294Z,58.76
2023-05-05T11:05:18.225Z,59.69
2023-05-05T11:07:47.928Z,59.99
2023-05-05T11:10:17.147Z,59.22
2023-05-05T11:13:20.038Z,56.88
2023-05-05T11:15:49.223Z,55.60
2023-05-05T11:18:35.943Z,54.61
2023-05-05T11:21:19.294Z,54.65
2023-05-05T11:23:49.514Z,51.16
2023-05-05T11:26:18.632Z,49.57
2023-05-05T11:29:04.318Z,52.13
2023-05-05T11:31:33.490Z,55.96
2023-05-05T11:34:28.176Z,53.91
2023-05-05T11:37:03.258Z,50.77
2023-05-05T11:39:42.185Z,52.09
2023-05-05T11:42:24.650Z,51.39
2023-05-05T11:44:53.210Z,49.67
2023-05-05T11:47:34.236Z,47.91
2023-05-05T11:50:19.593Z,49.29
2023-05-05T11:52:49.053Z,52.96
2023-05-05T11:55:24.142Z,53.98
2023-05-05T11:57:52.312Z,55.02
2023-05-05T12:00:21.145Z,53.28
2023-05-05T12:02:58.187Z,54.78
2023-05-05T12:05:26.555Z,55.28
2023-05-05T12:07:59.828Z,52.93
2023-05-05T12:10:28.521Z,52.09
2023-05-05T12:12:56.695Z,50.10
2023-05-05T12:15:32.506Z,49.10
2023-05-05T12:18:02.825Z,49.11
2023-05-05T12:20:33.178Z,50.29
2023-05-05T12:23:03.998Z,51.42
2023-05-05T12:25:39.367Z,50.37
2023-05-05T12:28:08.402Z,48.87
2023-05-05T12:30:36.642Z,50.60
2023-05-05T12:33:06.376Z,50.30
2023-05-05T12:35:36.878Z,50.84
2023-05-05T12:38:06.684Z,50.87
2023-05-05T12:40:45.819Z,49.40
2023-05-05T12:43:27.840Z,49.71
2023-05-05T12:46:07.104Z,49.46
2023-05-05T12:48:35.974Z,50.52
2023-05-05T12:51:20.982Z,51.06
2023-05-05T12:54:02.380Z,51.23
2023-05-05T12:56:34.156Z,49.46
2023-05-05T12:59:03.113Z,50.23
2023-05-05T13:01:31.361Z,51.59
2023-05-05T13:04:06.519Z,52.28
2023-05-05T13:06:35.198Z,53.87
2023-05-05T13:09:05.120Z,54.46
2023-05-05T13:11:36.967Z,54.56
2023-05-05T13:14:06.341Z,55.38
2023-05-05T13:16:34.608Z,54.79
2023-05-05T13:19:02.839Z,55.62
2023-05-05T13:21:30.840Z,56.45
2023-05-05T13:24:05.120Z,55.47
2023-05-05T13:26:42.274Z,55.63
2023-05-05T13:29:10.300Z,55.26
2023-05-05T13:31:38.346Z,55.85
2023-05-05T13:34:06.420Z,56.24
2023-05-05T13:36:34.810Z,56.81
2023-05-05T13:39:08.936Z,56.72
2023-05-05T13:41:36.822Z,56.72
2023-05-05T13:44:06.475Z,56.71
2023-05-05T13:46:34.521Z,56.60
2023-05-05T13:49:02.550Z,57.41
2023-05-05T13:51:30.824Z,56.17
2023-05-05T13:53:59.099Z,55.94
2023-05-05T13:56:27.869Z,55.93
2023-05-05T13:58:56.043Z,56.63
2023-05-05T14:01:25.971Z,57.40
2023-05-05T14:03:56.168Z,57.72
2023-05-05T14:06:26.030Z,57.64
2023-05-05T14:08:54.439Z,57.48
2023-05-05T14:11:22.958Z,57.48
2023-05-05T14:13:52.101Z,57.78
2023-05-05T14:16:20.317Z,57.79
2023-05-05T14:18:49.636Z,58.00
2023-05-05T14:21:17.670Z,57.84
2023-05-05T14:23:45.885Z,58.62
2023-05-05T14:26:13.858Z,58.91
2023-05-05T14:28:42.755Z,58.89
2023-05-05T14:31:11.457Z,59.28
2023-05-05T14:33:39.526Z,60.03
2023-05-05T14:36:10.484Z,59.96
2023-05-05T14:38:39.192Z,59.84
2023-05-05T14:41:07.241Z,60.05
2023-05-05T14:43:37.030Z,59.74
2023-05-05T14:46:07.182Z,60.09
2023-05-05T14:48:36.581Z,60.76
2023-05-05T14:51:04.763Z,60.86
2023-05-05T14:53:36.034Z,61.07
2023-05-05T14:56:04.201Z,61.24
2023-05-05T14:58:32.540Z,60.66
2023-05-05T15:01:00.926Z,60.65
2023-05-05T15:03:29.244Z,60.02
2023-05-05T15:05:59.874Z,60.52
2023-05-05T15:08:28.083Z,60.66
2023-05-05T15:10:57.731Z,60.88
2023-05-05T15:13:32.956Z,61.04
2023-05-05T15:16:01.213Z,60.56
2023-05-05T15:18:29.263Z,61.03
2023-05-05T15:20:57.226Z,61.12
2023-05-05T15:23:25.340Z,61.49
2023-05-05T15:25:53.406Z,61.45
2023-05-05T15:28:22.763Z,61.84
2023-05-05T15:30:50.722Z,61.52
2023-05-05T15:33:21.337Z,61.18
2023-05-05T15:35:49.406Z,61.49
2023-05-05T15:38:17.351Z,61.57
2023-05-05T15:40:47.218Z,61.68
2023-05-05T15:43:17.724Z,60.28
2023-05-05T15:45:47.170Z,60.11
2023-05-05T15:48:15.224Z,60.03
2023-05-05T15:50:43.257Z,60.00
2023-05-05T15:53:12.395Z,59.71
2023-05-05T15:55:40.427Z,60.08
2023-05-05T15:58:08.873Z,59.67
2023-05-05T16:00:37.083Z,60.08
2023-05-05T16:03:06.634Z,60.42
2023-05-05T16:05:34.640Z,60.50
2023-05-05T16:08:04.788Z,60.40
2023-05-05T16:10:32.877Z,60.25
2023-05-05T16:13:01.461Z,59.94
2023-05-05T16:15:29.568Z,60.39
2023-05-05T16:17:57.801Z,60.32
2023-05-05T16:20:28.550Z,60.59
2023-05-05T16:22:56.566Z,60.84
2023-05-05T16:25:24.791Z,60.65
2023-05-05T16:27:56.653Z,60.42
2023-05-05T16:30:25.071Z,60.50
2023-05-05T16:32:54.941Z,60.44
2023-05-05T16:35:24.536Z,60.71
2023-05-05T16:37:56.381Z,61.15
2023-05-05T16:40:24.504Z,61.28
2023-05-05T16:42:52.631Z,61.72
2023-05-05T16:45:24.502Z,62.31
2023-05-05T16:47:52.806Z,62.97
2023-05-05T16:50:21.003Z,63.72
2023-05-05T16:52:49.128Z,64.10
2023-05-05T16:55:18.850Z,64.29
2023-05-05T16:57:47.328Z,65.16
2023-05-05T17:00:16.549Z,65.86
2023-05-05T17:02:44.852Z,66.32
2023-05-05T17:05:12.996Z,66.61
2023-05-05T17:07:41.407Z,67.01
2023-05-05T17:10:11.731Z,67.31
2023-05-05T17:12:41.805Z,67.83
2023-05-05T17:15:11.232Z,68.91
2023-05-05T17:17:41.572Z,69.72
2023-05-05T17:20:12.679Z,70.41
2023-05-05T17:22:43.640Z,71.49
2023-05-05T17:25:15.137Z,73.11
2023-05-05T17:27:45.020Z,74.05
2023-05-05T17:30:14.217Z,74.74
2023-05-05T17:32:42.728Z,75.55
2023-05-05T17:35:12.454Z,76.77
2023-05-05T17:37:41.101Z,77.42
2023-05-05T17:40:10.227Z,78.05
2023-05-05T17:42:39.107Z,79.33
2023-05-05T17:45:10.080Z,79.96
2023-05-05T17:47:38.504Z,80.98
2023-05-05T17:50:08.711Z,81.84
2023-05-05T17:52:36.654Z,82.46
2023-05-05T17:55:07.127Z,83.87
2023-05-05T17:57:35.462Z,84.86
2023-05-05T18:00:05.332Z,85.05
2023-05-05T18:02:36.894Z,86.14
2023-05-05T18:05:05.327Z,86.89
2023-05-05T18:07:34.462Z,88.20
2023-05-05T18:10:02.595Z,89.38
2023-05-05T18:12:30.628Z,90.33
2023-05-05T18:14:58.632Z,92.08
2023-05-05T18:17:26.850Z,93.49
2023-05-05T18:19:56.230Z,94.67
2023-05-05T18:22:24.461Z,95.67
2023-05-05T18:24:54.644Z,96.70
2023-05-05T18:27:22.603Z,97.67
2023-05-05T18:29:50.474Z,99.38
2023-05-05T18:32:18.610Z,100.00
2023-05-05T18:34:46.539Z,100.00
2023-05-05T18:37:15.999Z,100.00
2023-05-05T18:39:45.170Z,100.00
2023-05-05T18:42:13.898Z,100.00
2023-05-05T18:44:42.195Z,100.00
2023-05-05T18:47:10.326Z,100.00
2023-05-05T18:49:38.650Z,100.00
2023-05-05T18:52:07.996Z,100.00
2023-05-05T18:54:37.938Z,100.00
2023-05-05T18:57:06.058Z,100.00
2023-05-05T18:59:34.064Z,100.00
2023-05-05T19:02:02.880Z,100.00
2023-05-05T19:04:32.261Z,100.00
2023-05-05T19:07:00.444Z,100.00
2023-05-05T19:09:28.702Z,100.00
2023-05-05T19:11:58.167Z,100.00
2023-05-05T19:14:26.430Z,100.00
2023-05-05T19:16:55.845Z,100.00
2023-05-05T19:19:24.023Z,100.00
2023-05-05T19:21:52.305Z,100.00
2023-05-05T19:24:20.260Z,100.00
2023-05-05T19:26:48.370Z,100.00
2023-05-05T19:29:18.801Z,100.00
2023-05-05T19:31:47.067Z,100.00
2023-05-05T19:34:15.494Z,100.00
2023-05-05T19:36:43.575Z,100.00
2023-05-05T19:39:13.683Z,100.00
2023-05-05T19:41:43.397Z,100.00
2023-05-05T19:44:11.381Z,100.00
2023-05-05T19:46:41.823Z,100.00
2023-05-05T19:49:09.865Z,100.00
2023-05-05T19:51:37.905Z,100.00
2023-05-05T19:54:06.176Z,100.00
2023-05-05T19:56:34.109Z,100.00
2023-05-05T19:59:05.355Z,100.00
2023-05-05T20:01:34.235Z,100.00
2023-05-05T20:04:04.592Z,100.00
2023-05-05T20:06:33.402Z,100.00
2023-05-05T20:09:02.853Z,100.00
2023-05-05T20:11:31.420Z,100.00
2023-05-05T20:13:59.737Z,100.00
2023-05-05T20:16:29.369Z,100.00
2023-05-05T20:18:57.570Z,100.00
2023-05-05T20:21:31.509Z,100.00
2023-05-05T20:23:59.835Z,100.00
2023-05-05T20:26:27.873Z,100.00
2023-05-05T20:29:07.786Z,100.00
2023-05-05T20:31:35.904Z,100.00
2023-05-05T20:34:03.943Z,100.00
2023-05-05T20:36:35.943Z,100.00
2023-05-05T20:39:04.007Z,100.00
2023-05-05T20:41:32.712Z,100.00
2023-05-05T20:44:00.812Z,100.00
2023-05-05T20:46:28.791Z,100.00
2023-05-05T20:48:56.815Z,100.00
2023-05-05T20:51:24.883Z,100.00
2023-05-05T20:53:56.821Z,100.00
2023-05-05T20:56:24.985Z,100.00
2023-05-05T20:58:52.988Z,100.00
2023-05-05T21:01:21.063Z,100.00
2023-05-05T21:03:49.059Z,100.00
2023-05-05T21:06:17.418Z,100.00
2023-05-05T21:08:45.876Z,100.00
2023-05-05T21:11:15.256Z,100.00
2023-05-05T21:13:43.330Z,100.00
2023-05-05T21:16:12.811Z,100.00
2023-05-05T21:18:59.533Z,100.00
2023-05-05T21:21:27.754Z,100.00
2023-05-05T21:23:56.313Z,100.00
2023-05-05T21:26:26.277Z,100.00
2023-05-05T21:28:54.451Z,100.00
2023-05-05T21:31:23.017Z,100.00
2023-05-05T21:33:51.219Z,100.00
2023-05-05T21:36:19.599Z,100.00
2023-05-05T21:38:48.069Z,100.00
2023-05-05T21:41:17.031Z,100.00
2023-05-05T21:43:46.601Z,100.00
2023-05-05T21:46:17.170Z,100.00
2023-05-05T21:48:49.836Z,100.00
2023-05-05T21:51:18.188Z,100.00
2023-05-05T21:53:46.604Z,100.00
2023-05-05T21:56:14.868Z,100.00
2023-05-05T21:58:42.806Z,100.00
2023-05-05T22:01:14.709Z,100.00
2023-05-05T22:03:43.948Z,100.00
2023-05-05T22:06:12.525Z,100.00
2023-05-05T22:08:40.681Z,100.00
2023-05-05T22:11:08.911Z,100.00
2023-05-05T22:13:37.835Z,100.00
2023-05-05T22:16:06.107Z,100.00
2023-05-05T22:18:35.845Z,100.00
2023-05-05T22:21:05.809Z,100.00
2023-05-05T22:23:33.908Z,100.00
2023-05-05T22:26:02.268Z,100.00
2023-05-05T22:28:30.315Z,100.00
2023-05-05T22:30:58.427Z,100.00
2023-05-05T22:33:27.376Z,100.00
2023-05-05T22:35:57.134Z,100.00
2023-05-05T22:38:25.118Z,100.00
2023-05-05T22:40:54.343Z,100.00
2023-05-05T22:43:22.301Z,100.00
2023-05-05T22:45:51.410Z,100.00
2023-05-05T22:48:19.334Z,100.00
2023-05-05T22:50:47.556Z,100.00
2023-05-05T22:53:17.372Z,100.00
2023-05-05T22:55:45.360Z,100.00
2023-05-05T22:58:13.334Z,100.00
2023-05-05T23:00:41.673Z,100.00
2023-05-05T23:03:11.020Z,100.00
2023-05-05T23:05:39.014Z,100.00
2023-05-05T23:08:07.024Z,100.00
2023-05-05T23:10:36.329Z,100.00
2023-05-05T23:13:04.785Z,100.00
2023-05-05T23:15:33.036Z,100.00
2023-05-05T23:18:01.088Z,100.00
2023-05-05T23:20:29.591Z,100.00
2023-05-05T23:22:57.611Z,100.00
2023-05-05T23:25:25.617Z,100.00
2023-05-05T23:27:54.961Z,100.00
2023-05-05T23:30:22.988Z,100.00
2023-05-05T23:32:51.029Z,100.00
2023-05-05T23:35:19.295Z,100.00
2023-05-05T23:37:47.791Z,100.00
2023-05-05T23:40:15.984Z,100.00
2023-05-05T23:42:43.928Z,100.00
2023-05-05T23:45:13.619Z,100.00
2023-05-05T23:47:41.630Z,100.00
2023-05-05T23:50:10.706Z,100.00
2023-05-05T23:52:38.726Z,100.00
2023-05-05T23:55:08.240Z,100.00
2023-05-05T23:57:36.692Z,100.00
